EGTK

Oxford (Kidlington) Airport

Kidlington, United Kingdom
METAR EGTK 162220Z 26009KT 9999 OVC006 06/06 Q1005
Observed Flight Rules
Dec-16 @ 22:20 UTC (55 minutes ago) Instrument Flight Rules
Wind Visibility Clouds
260° at 9 knots 10,000+ meters
  • Overcast at 600' AGL
Temperatures Readings
Current 6°C / 43°F
Dewpoint 6°C / 43°F
Humidity 100%
Altimeter 29.68" Hg
Pressure 1005 hPa
Elevation 82
METAR EGTK 162220Z 26009KT 9999 OVC006 06/06 Q1005
Observed Flight Rules
Dec-16 @ 22:20 UTC
(55 minutes ago)
IFR
Wind Visibility
260° at 9 knots 10,000+ meters
Clouds
  • Overcast at 600' AGL
Temperature Dewpoint
6°C / 43°F 6°C / 43°F
Humidity Altimeter Pressure
100% 29.68" Hg 1005 hPa